createdAt,value
2022-12-23T00:17:37.235Z,9.8
2022-12-23T00:27:37.856Z,9.8
2022-12-23T00:37:38.177Z,9.9
2022-12-23T00:47:38.841Z,9.9
2022-12-23T00:57:39.210Z,9.9
2022-12-23T01:07:39.420Z,9.8
2022-12-23T01:17:40.048Z,9.8
2022-12-23T01:27:41.035Z,9.8
2022-12-23T01:37:41.283Z,9.8
2022-12-23T01:47:41.805Z,9.9
2022-12-23T02:07:43.151Z,9.9
2022-12-23T02:17:43.975Z,9.9
2022-12-23T02:27:44.834Z,9.9
2022-12-23T02:37:45.436Z,9.9
2022-12-23T02:47:46.427Z,9.9
2022-12-23T02:57:47.538Z,9.9
2022-12-23T03:07:48.472Z,9.9
2022-12-23T03:17:48.644Z,9.9
2022-12-23T03:27:49.022Z,9.9
2022-12-23T03:37:50.024Z,9.9
2022-12-23T03:47:50.987Z,9.9
2022-12-23T03:57:51.565Z,9.9
2022-12-23T04:07:52.089Z,9.9
2022-12-23T04:17:52.389Z,9.9
2022-12-23T04:37:52.979Z,9.8
2022-12-23T04:57:53.417Z,9.8
2022-12-23T05:07:54.161Z,9.8
2022-12-23T05:17:54.376Z,9.8
2022-12-23T05:27:54.657Z,9.8
2022-12-23T05:37:55.195Z,9.8
2022-12-23T05:57:56.791Z,9.7
2022-12-23T06:07:57.110Z,9.7
2022-12-23T06:17:57.782Z,9.7
2022-12-23T06:27:58.530Z,9.7
2022-12-23T06:37:58.919Z,9.7
2022-12-23T06:58:00.114Z,9.7
2022-12-23T07:08:00.680Z,9.7
2022-12-23T07:18:01.756Z,9.6
2022-12-23T07:28:02.497Z,9.6
2022-12-23T07:38:03.418Z,9.6
2022-12-23T07:48:03.713Z,9.7
2022-12-23T07:58:03.819Z,9.6
2022-12-23T08:08:04.157Z,9.6
2022-12-23T08:18:04.937Z,9.6
2022-12-23T08:28:05.735Z,9.5
2022-12-23T08:38:06.225Z,9.5
2022-12-23T08:48:06.542Z,9.5
2022-12-23T08:58:07.324Z,9.4
2022-12-23T09:08:07.644Z,9.4
2022-12-23T09:18:07.801Z,9.4
2022-12-23T09:28:08.397Z,9.5
2022-12-23T09:38:08.931Z,9.4
2022-12-23T09:48:09.571Z,9.4
2022-12-23T09:58:09.858Z,9.3
2022-12-23T10:08:09.960Z,9.3
2022-12-23T10:18:10.999Z,9.3
2022-12-23T10:28:11.436Z,9.3
2022-12-23T10:38:11.883Z,9.3
2022-12-23T10:48:14.372Z,9.4
2022-12-23T10:58:12.671Z,9.5
2022-12-23T11:08:13.078Z,9.6
2022-12-23T11:18:13.553Z,9.7
2022-12-23T11:28:14.317Z,9.7
2022-12-23T11:38:14.497Z,9.7
2022-12-23T11:48:15.530Z,9.7
2022-12-23T12:08:16.778Z,9.6
2022-12-23T12:18:17.219Z,9.6
2022-12-23T12:28:18.057Z,9.6
2022-12-23T12:38:18.293Z,9.6
2022-12-23T12:48:19.153Z,9.4
2022-12-23T12:58:19.621Z,9.4
2022-12-23T13:08:20.354Z,9.4
2022-12-23T13:18:21.073Z,9.3
2022-12-23T13:28:21.189Z,9.2
2022-12-23T13:48:22.181Z,9.2
2022-12-23T13:58:23.281Z,9.3
2022-12-23T14:08:24.230Z,9.3
2022-12-23T14:18:24.828Z,9.4
2022-12-23T14:28:25.723Z,9.4
2022-12-23T14:38:26.768Z,9.4
2022-12-23T14:58:27.631Z,9.3
2022-12-23T15:08:28.362Z,9.2
2022-12-23T15:38:29.564Z,9.1
2022-12-23T16:08:30.796Z,9
2022-12-23T16:18:31.666Z,9
2022-12-23T16:28:32.589Z,9
2022-12-23T16:38:33.469Z,9
2022-12-23T16:48:34.271Z,8.9
2022-12-23T16:58:35.125Z,9
2022-12-23T17:08:35.826Z,9
2022-12-23T17:18:36.161Z,9.2
2022-12-23T17:28:37.191Z,9.3
2022-12-23T17:38:37.271Z,9.6
2022-12-23T17:48:38.221Z,9.8
2022-12-23T17:58:38.459Z,10
2022-12-23T18:18:46.057Z,10.8
2022-12-23T18:28:41.014Z,10.9
2022-12-23T18:38:41.987Z,11
2022-12-23T18:48:42.188Z,11.1
2022-12-23T18:58:43.005Z,11.1
2022-12-23T19:08:43.132Z,11.1
2022-12-23T19:28:44.304Z,11.1
2022-12-23T19:38:44.850Z,11.1
2022-12-23T19:48:45.261Z,11.2
2022-12-23T19:58:46.324Z,11.1
2022-12-23T20:08:46.760Z,11.1
2022-12-23T20:18:47.190Z,10.9
2022-12-23T20:28:47.306Z,10.9
2022-12-23T20:38:48.341Z,10.9
2022-12-23T20:48:48.928Z,10.9
2022-12-23T21:08:49.567Z,10.8
2022-12-23T21:18:50.569Z,10.8
2022-12-23T21:28:51.184Z,10.7
2022-12-23T21:38:51.686Z,10.8
2022-12-23T21:48:51.747Z,10.7
2022-12-23T21:58:52.209Z,10.5
2022-12-23T22:18:53.633Z,10.5
2022-12-23T22:28:54.387Z,10.6
2022-12-23T22:38:54.779Z,10.6
2022-12-23T22:48:54.948Z,10.5
2022-12-23T22:58:55.975Z,10.4
2022-12-23T23:18:56.968Z,10.3
2022-12-23T23:28:57.931Z,10.3
2022-12-23T23:38:58.419Z,10.3
2022-12-23T23:58:59.953Z,10.1
